sensor_id;sensor_type;location;lat;lon;timestamp;P1;durP1;ratioP1;P2;durP2;ratioP2
19998;SDS011;10160;50.926;4.374;2023-06-26T00:00:28;8.68;;;4.60;;
19998;SDS011;10160;50.926;4.374;2023-06-26T00:02:53;9.18;;;4.13;;
19998;SDS011;10160;50.926;4.374;2023-06-26T00:05:19;9.57;;;4.53;;
19998;SDS011;10160;50.926;4.374;2023-06-26T00:07:45;13.10;;;4.25;;
19998;SDS011;10160;50.926;4.374;2023-06-26T00:10:10;10.80;;;4.15;;
19998;SDS011;10160;50.926;4.374;2023-06-26T00:12:36;8.40;;;4.28;;
19998;SDS011;10160;50.926;4.374;2023-06-26T00:15:02;8.45;;;4.00;;
19998;SDS011;10160;50.926;4.374;2023-06-26T00:17:28;9.52;;;4.72;;
19998;SDS011;10160;50.926;4.374;2023-06-26T00:19:53;11.27;;;4.43;;
19998;SDS011;10160;50.926;4.374;2023-06-26T00:22:20;10.05;;;4.47;;
19998;SDS011;10160;50.926;4.374;2023-06-26T00:24:46;7.85;;;4.53;;
19998;SDS011;10160;50.926;4.374;2023-06-26T00:27:12;8.40;;;4.78;;
19998;SDS011;10160;50.926;4.374;2023-06-26T00:29:38;14.30;;;4.55;;
19998;SDS011;10160;50.926;4.374;2023-06-26T00:32:04;9.45;;;4.55;;
19998;SDS011;10160;50.926;4.374;2023-06-26T00:34:30;8.20;;;4.10;;
19998;SDS011;10160;50.926;4.374;2023-06-26T00:36:56;8.32;;;3.88;;
19998;SDS011;10160;50.926;4.374;2023-06-26T00:39:21;8.40;;;4.10;;
19998;SDS011;10160;50.926;4.374;2023-06-26T00:41:50;8.00;;;4.07;;
19998;SDS011;10160;50.926;4.374;2023-06-26T00:44:18;6.93;;;3.63;;
19998;SDS011;10160;50.926;4.374;2023-06-26T00:46:44;11.70;;;3.90;;
19998;SDS011;10160;50.926;4.374;2023-06-26T00:49:10;9.18;;;4.20;;
19998;SDS011;10160;50.926;4.374;2023-06-26T00:51:37;9.68;;;3.45;;
19998;SDS011;10160;50.926;4.374;2023-06-26T00:54:03;9.88;;;3.45;;
19998;SDS011;10160;50.926;4.374;2023-06-26T00:56:29;9.75;;;3.22;;
19998;SDS011;10160;50.926;4.374;2023-06-26T00:58:56;10.48;;;3.83;;
19998;SDS011;10160;50.926;4.374;2023-06-26T01:01:22;10.20;;;3.65;;
19998;SDS011;10160;50.926;4.374;2023-06-26T01:03:50;7.25;;;3.60;;
19998;SDS011;10160;50.926;4.374;2023-06-26T01:06:18;6.82;;;3.35;;
19998;SDS011;10160;50.926;4.374;2023-06-26T01:08:45;8.50;;;3.38;;
19998;SDS011;10160;50.926;4.374;2023-06-26T01:11:11;7.63;;;3.30;;
19998;SDS011;10160;50.926;4.374;2023-06-26T01:13:38;9.70;;;3.50;;
19998;SDS011;10160;50.926;4.374;2023-06-26T01:16:10;9.45;;;3.25;;
19998;SDS011;10160;50.926;4.374;2023-06-26T01:18:39;8.13;;;3.80;;
19998;SDS011;10160;50.926;4.374;2023-06-26T01:21:07;6.78;;;3.45;;
19998;SDS011;10160;50.926;4.374;2023-06-26T01:26:34;10.52;;;3.83;;
19998;SDS011;10160;50.926;4.374;2023-06-26T01:29:02;10.60;;;3.70;;
19998;SDS011;10160;50.926;4.374;2023-06-26T01:31:30;9.77;;;3.15;;
19998;SDS011;10160;50.926;4.374;2023-06-26T01:33:57;8.48;;;3.60;;
19998;SDS011;10160;50.926;4.374;2023-06-26T01:36:24;10.20;;;3.40;;
19998;SDS011;10160;50.926;4.374;2023-06-26T01:38:50;8.90;;;3.30;;
19998;SDS011;10160;50.926;4.374;2023-06-26T01:41:16;8.82;;;3.25;;
19998;SDS011;10160;50.926;4.374;2023-06-26T01:43:55;11.88;;;3.92;;
19998;SDS011;10160;50.926;4.374;2023-06-26T01:46:40;9.55;;;3.92;;
19998;SDS011;10160;50.926;4.374;2023-06-26T01:49:21;8.52;;;3.70;;
19998;SDS011;10160;50.926;4.374;2023-06-26T01:51:58;7.32;;;2.75;;
19998;SDS011;10160;50.926;4.374;2023-06-26T01:54:29;9.43;;;3.70;;
19998;SDS011;10160;50.926;4.374;2023-06-26T01:56:58;9.13;;;3.30;;
19998;SDS011;10160;50.926;4.374;2023-06-26T01:59:24;7.85;;;3.17;;
19998;SDS011;10160;50.926;4.374;2023-06-26T02:01:53;8.00;;;3.22;;
19998;SDS011;10160;50.926;4.374;2023-06-26T02:04:19;9.38;;;3.30;;
19998;SDS011;10160;50.926;4.374;2023-06-26T02:06:45;8.18;;;3.47;;
19998;SDS011;10160;50.926;4.374;2023-06-26T02:09:11;9.43;;;3.20;;
19998;SDS011;10160;50.926;4.374;2023-06-26T02:11:37;11.20;;;3.67;;
19998;SDS011;10160;50.926;4.374;2023-06-26T02:14:02;8.27;;;3.10;;
19998;SDS011;10160;50.926;4.374;2023-06-26T02:16:28;8.57;;;3.30;;
19998;SDS011;10160;50.926;4.374;2023-06-26T02:18:57;7.45;;;3.08;;
19998;SDS011;10160;50.926;4.374;2023-06-26T02:21:23;9.38;;;3.38;;
19998;SDS011;10160;50.926;4.374;2023-06-26T02:23:49;8.93;;;3.00;;
19998;SDS011;10160;50.926;4.374;2023-06-26T02:26:14;13.45;;;3.47;;
19998;SDS011;10160;50.926;4.374;2023-06-26T02:28:40;12.13;;;4.28;;
19998;SDS011;10160;50.926;4.374;2023-06-26T02:31:05;10.30;;;3.42;;
19998;SDS011;10160;50.926;4.374;2023-06-26T02:33:31;8.77;;;3.42;;
19998;SDS011;10160;50.926;4.374;2023-06-26T02:35:57;11.25;;;3.50;;
19998;SDS011;10160;50.926;4.374;2023-06-26T02:38:23;12.10;;;3.53;;
19998;SDS011;10160;50.926;4.374;2023-06-26T02:40:48;10.35;;;3.42;;
19998;SDS011;10160;50.926;4.374;2023-06-26T02:43:14;12.30;;;3.65;;
19998;SDS011;10160;50.926;4.374;2023-06-26T02:45:39;12.77;;;3.58;;
19998;SDS011;10160;50.926;4.374;2023-06-26T02:48:05;16.98;;;3.83;;
19998;SDS011;10160;50.926;4.374;2023-06-26T02:50:31;10.55;;;3.63;;
19998;SDS011;10160;50.926;4.374;2023-06-26T02:52:56;11.27;;;3.60;;
19998;SDS011;10160;50.926;4.374;2023-06-26T02:55:22;10.13;;;3.85;;
19998;SDS011;10160;50.926;4.374;2023-06-26T02:57:49;11.00;;;3.95;;
19998;SDS011;10160;50.926;4.374;2023-06-26T03:00:14;12.90;;;4.30;;
19998;SDS011;10160;50.926;4.374;2023-06-26T03:02:40;12.05;;;3.88;;
19998;SDS011;10160;50.926;4.374;2023-06-26T03:05:06;11.32;;;4.55;;
19998;SDS011;10160;50.926;4.374;2023-06-26T03:07:32;15.27;;;4.80;;
19998;SDS011;10160;50.926;4.374;2023-06-26T03:09:57;12.15;;;4.38;;
19998;SDS011;10160;50.926;4.374;2023-06-26T03:12:24;12.38;;;4.40;;
19998;SDS011;10160;50.926;4.374;2023-06-26T03:14:50;16.60;;;4.70;;
19998;SDS011;10160;50.926;4.374;2023-06-26T03:17:16;13.82;;;4.13;;
19998;SDS011;10160;50.926;4.374;2023-06-26T03:19:41;12.85;;;4.80;;
19998;SDS011;10160;50.926;4.374;2023-06-26T03:22:10;14.20;;;4.15;;
19998;SDS011;10160;50.926;4.374;2023-06-26T03:24:36;16.50;;;4.28;;
19998;SDS011;10160;50.926;4.374;2023-06-26T03:27:01;18.25;;;5.00;;
19998;SDS011;10160;50.926;4.374;2023-06-26T03:29:28;13.95;;;3.78;;
19998;SDS011;10160;50.926;4.374;2023-06-26T03:31:56;16.27;;;4.40;;
19998;SDS011;10160;50.926;4.374;2023-06-26T03:34:22;14.43;;;4.55;;
19998;SDS011;10160;50.926;4.374;2023-06-26T03:36:47;20.38;;;4.80;;
19998;SDS011;10160;50.926;4.374;2023-06-26T03:39:13;15.20;;;5.13;;
19998;SDS011;10160;50.926;4.374;2023-06-26T03:41:38;15.32;;;4.32;;
19998;SDS011;10160;50.926;4.374;2023-06-26T03:44:04;15.85;;;5.10;;
19998;SDS011;10160;50.926;4.374;2023-06-26T03:46:30;17.10;;;4.93;;
19998;SDS011;10160;50.926;4.374;2023-06-26T03:48:55;17.98;;;4.65;;
19998;SDS011;10160;50.926;4.374;2023-06-26T03:51:21;19.17;;;5.18;;
19998;SDS011;10160;50.926;4.374;2023-06-26T03:53:47;17.50;;;4.85;;
19998;SDS011;10160;50.926;4.374;2023-06-26T03:56:12;15.30;;;4.80;;
19998;SDS011;10160;50.926;4.374;2023-06-26T03:58:39;15.93;;;4.68;;
19998;SDS011;10160;50.926;4.374;2023-06-26T04:01:04;11.70;;;4.22;;
19998;SDS011;10160;50.926;4.374;2023-06-26T04:03:33;17.15;;;4.50;;
19998;SDS011;10160;50.926;4.374;2023-06-26T04:05:59;22.70;;;5.57;;
19998;SDS011;10160;50.926;4.374;2023-06-26T04:08:25;15.48;;;4.78;;
19998;SDS011;10160;50.926;4.374;2023-06-26T04:10:53;17.63;;;4.43;;
19998;SDS011;10160;50.926;4.374;2023-06-26T04:13:24;15.07;;;4.25;;
19998;SDS011;10160;50.926;4.374;2023-06-26T04:15:50;20.08;;;4.97;;
19998;SDS011;10160;50.926;4.374;2023-06-26T04:18:16;16.17;;;4.97;;
19998;SDS011;10160;50.926;4.374;2023-06-26T04:20:42;17.63;;;4.80;;
19998;SDS011;10160;50.926;4.374;2023-06-26T04:23:34;12.63;;;3.83;;
19998;SDS011;10160;50.926;4.374;2023-06-26T04:26:00;18.13;;;4.88;;
19998;SDS011;10160;50.926;4.374;2023-06-26T04:28:27;14.93;;;4.22;;
19998;SDS011;10160;50.926;4.374;2023-06-26T04:30:53;15.80;;;4.75;;
19998;SDS011;10160;50.926;4.374;2023-06-26T04:33:19;18.35;;;4.45;;
19998;SDS011;10160;50.926;4.374;2023-06-26T04:35:45;17.73;;;4.75;;
19998;SDS011;10160;50.926;4.374;2023-06-26T04:38:13;21.70;;;5.13;;
19998;SDS011;10160;50.926;4.374;2023-06-26T04:40:42;17.83;;;4.55;;
19998;SDS011;10160;50.926;4.374;2023-06-26T04:43:10;20.27;;;4.80;;
19998;SDS011;10160;50.926;4.374;2023-06-26T04:45:36;20.05;;;4.93;;
19998;SDS011;10160;50.926;4.374;2023-06-26T04:48:02;20.50;;;4.60;;
19998;SDS011;10160;50.926;4.374;2023-06-26T04:50:28;23.92;;;4.57;;
19998;SDS011;10160;50.926;4.374;2023-06-26T04:52:55;19.45;;;4.95;;
19998;SDS011;10160;50.926;4.374;2023-06-26T04:55:21;20.65;;;5.20;;
19998;SDS011;10160;50.926;4.374;2023-06-26T04:57:50;22.23;;;4.35;;
19998;SDS011;10160;50.926;4.374;2023-06-26T05:00:16;16.65;;;4.07;;
19998;SDS011;10160;50.926;4.374;2023-06-26T05:02:42;18.65;;;4.30;;
19998;SDS011;10160;50.926;4.374;2023-06-26T05:05:08;14.32;;;4.38;;
19998;SDS011;10160;50.926;4.374;2023-06-26T05:07:35;18.42;;;4.38;;
19998;SDS011;10160;50.926;4.374;2023-06-26T05:10:01;18.45;;;4.35;;
19998;SDS011;10160;50.926;4.374;2023-06-26T05:12:26;17.98;;;3.95;;
19998;SDS011;10160;50.926;4.374;2023-06-26T05:14:52;13.77;;;3.78;;
19998;SDS011;10160;50.926;4.374;2023-06-26T05:17:20;17.23;;;4.18;;
19998;SDS011;10160;50.926;4.374;2023-06-26T05:19:46;18.75;;;4.35;;
19998;SDS011;10160;50.926;4.374;2023-06-26T05:22:12;12.65;;;3.67;;
19998;SDS011;10160;50.926;4.374;2023-06-26T05:24:38;15.98;;;3.83;;
19998;SDS011;10160;50.926;4.374;2023-06-26T05:27:05;20.17;;;4.13;;
19998;SDS011;10160;50.926;4.374;2023-06-26T05:29:31;18.48;;;3.83;;
19998;SDS011;10160;50.926;4.374;2023-06-26T05:31:58;15.05;;;3.55;;
19998;SDS011;10160;50.926;4.374;2023-06-26T05:34:24;16.25;;;3.75;;
19998;SDS011;10160;50.926;4.374;2023-06-26T05:36:54;19.95;;;3.85;;
19998;SDS011;10160;50.926;4.374;2023-06-26T05:39:23;18.30;;;3.33;;
19998;SDS011;10160;50.926;4.374;2023-06-26T05:41:49;14.23;;;3.25;;
19998;SDS011;10160;50.926;4.374;2023-06-26T05:44:19;14.63;;;3.50;;
19998;SDS011;10160;50.926;4.374;2023-06-26T05:46:45;17.45;;;4.22;;
19998;SDS011;10160;50.926;4.374;2023-06-26T05:49:11;11.52;;;3.22;;
19998;SDS011;10160;50.926;4.374;2023-06-26T05:51:37;11.82;;;2.90;;
19998;SDS011;10160;50.926;4.374;2023-06-26T05:54:03;13.35;;;3.33;;
19998;SDS011;10160;50.926;4.374;2023-06-26T05:56:29;14.20;;;2.95;;
19998;SDS011;10160;50.926;4.374;2023-06-26T05:58:55;12.55;;;3.20;;
19998;SDS011;10160;50.926;4.374;2023-06-26T06:01:22;14.10;;;2.72;;
19998;SDS011;10160;50.926;4.374;2023-06-26T06:03:49;11.10;;;2.50;;
19998;SDS011;10160;50.926;4.374;2023-06-26T06:06:15;10.50;;;2.78;;
19998;SDS011;10160;50.926;4.374;2023-06-26T06:08:41;9.45;;;2.53;;
19998;SDS011;10160;50.926;4.374;2023-06-26T06:11:07;12.68;;;3.05;;
19998;SDS011;10160;50.926;4.374;2023-06-26T06:13:33;10.05;;;2.55;;
19998;SDS011;10160;50.926;4.374;2023-06-26T06:15:58;11.85;;;2.72;;
19998;SDS011;10160;50.926;4.374;2023-06-26T06:18:24;12.88;;;2.58;;
19998;SDS011;10160;50.926;4.374;2023-06-26T06:20:49;15.77;;;2.30;;
19998;SDS011;10160;50.926;4.374;2023-06-26T06:23:15;11.25;;;2.72;;
19998;SDS011;10160;50.926;4.374;2023-06-26T06:25:41;13.30;;;2.70;;
19998;SDS011;10160;50.926;4.374;2023-06-26T06:28:06;10.50;;;2.28;;
19998;SDS011;10160;50.926;4.374;2023-06-26T06:30:32;8.75;;;2.42;;
19998;SDS011;10160;50.926;4.374;2023-06-26T06:32:58;8.18;;;2.20;;
19998;SDS011;10160;50.926;4.374;2023-06-26T06:35:23;10.50;;;2.50;;
19998;SDS011;10160;50.926;4.374;2023-06-26T06:37:49;12.73;;;2.63;;
19998;SDS011;10160;50.926;4.374;2023-06-26T06:40:15;10.25;;;2.00;;
19998;SDS011;10160;50.926;4.374;2023-06-26T06:42:41;9.15;;;2.17;;
19998;SDS011;10160;50.926;4.374;2023-06-26T06:45:06;13.80;;;2.42;;
19998;SDS011;10160;50.926;4.374;2023-06-26T06:47:33;16.42;;;2.63;;
19998;SDS011;10160;50.926;4.374;2023-06-26T06:49:59;7.85;;;2.00;;
19998;SDS011;10160;50.926;4.374;2023-06-26T06:52:32;10.70;;;2.30;;
19998;SDS011;10160;50.926;4.374;2023-06-26T06:55:05;7.00;;;2.15;;
19998;SDS011;10160;50.926;4.374;2023-06-26T06:57:33;7.30;;;1.65;;
19998;SDS011;10160;50.926;4.374;2023-06-26T07:00:10;11.80;;;2.65;;
19998;SDS011;10160;50.926;4.374;2023-06-26T07:02:37;9.80;;;2.28;;
19998;SDS011;10160;50.926;4.374;2023-06-26T07:05:03;10.80;;;2.38;;
19998;SDS011;10160;50.926;4.374;2023-06-26T07:07:30;8.98;;;2.35;;
19998;SDS011;10160;50.926;4.374;2023-06-26T07:09:58;12.68;;;2.78;;
19998;SDS011;10160;50.926;4.374;2023-06-26T07:12:25;12.23;;;2.40;;
19998;SDS011;10160;50.926;4.374;2023-06-26T07:14:50;11.07;;;2.17;;
19998;SDS011;10160;50.926;4.374;2023-06-26T07:17:16;6.47;;;2.33;;
19998;SDS011;10160;50.926;4.374;2023-06-26T07:19:42;12.52;;;2.25;;
19998;SDS011;10160;50.926;4.374;2023-06-26T07:22:07;18.90;;;2.63;;
19998;SDS011;10160;50.926;4.374;2023-06-26T07:24:33;9.90;;;2.22;;
19998;SDS011;10160;50.926;4.374;2023-06-26T07:26:59;14.00;;;2.00;;
19998;SDS011;10160;50.926;4.374;2023-06-26T07:29:25;8.73;;;2.10;;
19998;SDS011;10160;50.926;4.374;2023-06-26T07:31:54;16.70;;;2.60;;
19998;SDS011;10160;50.926;4.374;2023-06-26T07:34:20;12.93;;;2.45;;
19998;SDS011;10160;50.926;4.374;2023-06-26T07:36:45;13.35;;;2.10;;
19998;SDS011;10160;50.926;4.374;2023-06-26T07:39:11;9.88;;;2.13;;
19998;SDS011;10160;50.926;4.374;2023-06-26T07:41:37;12.05;;;2.58;;
19998;SDS011;10160;50.926;4.374;2023-06-26T07:44:02;9.40;;;2.13;;
19998;SDS011;10160;50.926;4.374;2023-06-26T07:46:28;12.00;;;2.17;;
19998;SDS011;10160;50.926;4.374;2023-06-26T07:48:54;11.88;;;2.50;;
19998;SDS011;10160;50.926;4.374;2023-06-26T07:51:20;12.52;;;2.05;;
19998;SDS011;10160;50.926;4.374;2023-06-26T07:53:45;10.35;;;2.40;;
19998;SDS011;10160;50.926;4.374;2023-06-26T07:56:11;10.27;;;2.05;;
19998;SDS011;10160;50.926;4.374;2023-06-26T07:58:37;9.68;;;1.80;;
19998;SDS011;10160;50.926;4.374;2023-06-26T08:01:03;9.50;;;1.80;;
19998;SDS011;10160;50.926;4.374;2023-06-26T08:03:31;10.48;;;2.03;;
19998;SDS011;10160;50.926;4.374;2023-06-26T08:05:56;8.80;;;1.80;;
19998;SDS011;10160;50.926;4.374;2023-06-26T08:08:22;7.43;;;1.92;;
19998;SDS011;10160;50.926;4.374;2023-06-26T08:10:48;10.93;;;2.15;;
19998;SDS011;10160;50.926;4.374;2023-06-26T08:13:13;11.57;;;2.00;;
19998;SDS011;10160;50.926;4.374;2023-06-26T08:15:39;9.23;;;2.70;;
19998;SDS011;10160;50.926;4.374;2023-06-26T08:18:04;10.02;;;2.35;;
19998;SDS011;10160;50.926;4.374;2023-06-26T08:20:30;14.73;;;3.15;;
19998;SDS011;10160;50.926;4.374;2023-06-26T08:22:56;8.25;;;2.20;;
19998;SDS011;10160;50.926;4.374;2023-06-26T08:25:22;10.52;;;2.10;;
19998;SDS011;10160;50.926;4.374;2023-06-26T08:27:47;10.10;;;2.67;;
19998;SDS011;10160;50.926;4.374;2023-06-26T08:30:16;10.05;;;1.92;;
19998;SDS011;10160;50.926;4.374;2023-06-26T08:32:41;8.35;;;2.03;;
19998;SDS011;10160;50.926;4.374;2023-06-26T08:35:07;9.23;;;2.00;;
19998;SDS011;10160;50.926;4.374;2023-06-26T08:37:35;7.00;;;1.98;;
19998;SDS011;10160;50.926;4.374;2023-06-26T08:40:00;11.48;;;2.20;;
19998;SDS011;10160;50.926;4.374;2023-06-26T08:42:26;10.80;;;2.10;;
19998;SDS011;10160;50.926;4.374;2023-06-26T08:44:52;13.40;;;1.90;;
19998;SDS011;10160;50.926;4.374;2023-06-26T08:47:18;6.57;;;1.77;;
19998;SDS011;10160;50.926;4.374;2023-06-26T08:49:56;8.07;;;1.67;;
19998;SDS011;10160;50.926;4.374;2023-06-26T08:52:56;10.32;;;1.90;;
19998;SDS011;10160;50.926;4.374;2023-06-26T08:55:43;8.00;;;2.20;;
19998;SDS011;10160;50.926;4.374;2023-06-26T08:58:08;7.90;;;2.05;;
19998;SDS011;10160;50.926;4.374;2023-06-26T09:00:38;10.52;;;2.10;;
19998;SDS011;10160;50.926;4.374;2023-06-26T09:03:04;9.30;;;1.55;;
19998;SDS011;10160;50.926;4.374;2023-06-26T09:05:30;12.15;;;1.90;;
19998;SDS011;10160;50.926;4.374;2023-06-26T09:07:57;7.20;;;2.08;;
19998;SDS011;10160;50.926;4.374;2023-06-26T09:10:23;7.47;;;1.45;;
19998;SDS011;10160;50.926;4.374;2023-06-26T09:12:49;7.45;;;1.80;;
19998;SDS011;10160;50.926;4.374;2023-06-26T09:15:15;7.78;;;1.80;;
19998;SDS011;10160;50.926;4.374;2023-06-26T09:17:43;8.50;;;1.50;;
19998;SDS011;10160;50.926;4.374;2023-06-26T09:20:09;7.25;;;2.00;;
19998;SDS011;10160;50.926;4.374;2023-06-26T09:22:36;8.48;;;1.52;;
19998;SDS011;10160;50.926;4.374;2023-06-26T09:25:06;10.68;;;1.95;;
19998;SDS011;10160;50.926;4.374;2023-06-26T09:27:32;7.32;;;1.60;;
19998;SDS011;10160;50.926;4.374;2023-06-26T09:29:59;6.30;;;1.60;;
19998;SDS011;10160;50.926;4.374;2023-06-26T09:32:25;9.02;;;1.98;;
19998;SDS011;10160;50.926;4.374;2023-06-26T09:34:52;10.75;;;1.77;;
19998;SDS011;10160;50.926;4.374;2023-06-26T09:37:20;8.80;;;1.70;;
19998;SDS011;10160;50.926;4.374;2023-06-26T09:39:47;6.22;;;1.83;;
19998;SDS011;10160;50.926;4.374;2023-06-26T09:42:13;10.90;;;1.75;;
19998;SDS011;10160;50.926;4.374;2023-06-26T09:44:46;7.90;;;1.40;;
19998;SDS011;10160;50.926;4.374;2023-06-26T09:47:12;7.18;;;1.35;;
19998;SDS011;10160;50.926;4.374;2023-06-26T09:49:42;6.80;;;1.73;;
19998;SDS011;10160;50.926;4.374;2023-06-26T09:52:08;4.80;;;1.58;;
19998;SDS011;10160;50.926;4.374;2023-06-26T09:54:34;7.10;;;1.48;;
19998;SDS011;10160;50.926;4.374;2023-06-26T09:57:08;4.55;;;1.33;;
19998;SDS011;10160;50.926;4.374;2023-06-26T09:59:34;2.75;;;1.05;;
19998;SDS011;10160;50.926;4.374;2023-06-26T10:02:00;5.97;;;1.67;;
19998;SDS011;10160;50.926;4.374;2023-06-26T10:04:27;6.45;;;1.23;;
19998;SDS011;10160;50.926;4.374;2023-06-26T10:06:54;4.82;;;1.35;;
19998;SDS011;10160;50.926;4.374;2023-06-26T10:09:22;4.85;;;1.20;;
19998;SDS011;10160;50.926;4.374;2023-06-26T10:11:51;4.60;;;1.33;;
19998;SDS011;10160;50.926;4.374;2023-06-26T10:14:27;7.50;;;1.40;;
19998;SDS011;10160;50.926;4.374;2023-06-26T10:16:58;9.23;;;1.65;;
19998;SDS011;10160;50.926;4.374;2023-06-26T10:19:26;8.75;;;1.40;;
19998;SDS011;10160;50.926;4.374;2023-06-26T10:21:53;7.80;;;1.33;;
19998;SDS011;10160;50.926;4.374;2023-06-26T10:24:23;4.85;;;1.52;;
19998;SDS011;10160;50.926;4.374;2023-06-26T10:26:50;6.85;;;1.13;;
19998;SDS011;10160;50.926;4.374;2023-06-26T10:29:20;9.00;;;1.50;;
19998;SDS011;10160;50.926;4.374;2023-06-26T10:31:50;5.82;;;1.40;;
19998;SDS011;10160;50.926;4.374;2023-06-26T10:34:17;5.88;;;1.35;;
19998;SDS011;10160;50.926;4.374;2023-06-26T10:36:43;10.55;;;1.40;;
19998;SDS011;10160;50.926;4.374;2023-06-26T10:39:09;5.32;;;1.52;;
19998;SDS011;10160;50.926;4.374;2023-06-26T10:41:42;8.90;;;1.40;;
19998;SDS011;10160;50.926;4.374;2023-06-26T10:44:11;6.90;;;1.27;;
19998;SDS011;10160;50.926;4.374;2023-06-26T10:49:29;2.97;;;1.08;;
19998;SDS011;10160;50.926;4.374;2023-06-26T10:51:55;6.47;;;1.48;;
19998;SDS011;10160;50.926;4.374;2023-06-26T10:54:28;5.32;;;1.48;;
19998;SDS011;10160;50.926;4.374;2023-06-26T10:56:55;4.25;;;1.13;;
19998;SDS011;10160;50.926;4.374;2023-06-26T10:59:22;7.53;;;1.33;;
19998;SDS011;10160;50.926;4.374;2023-06-26T11:02:01;6.80;;;1.42;;
19998;SDS011;10160;50.926;4.374;2023-06-26T11:04:37;5.90;;;1.40;;
19998;SDS011;10160;50.926;4.374;2023-06-26T11:07:24;3.05;;;1.13;;
19998;SDS011;10160;50.926;4.374;2023-06-26T11:09:54;7.07;;;1.17;;
19998;SDS011;10160;50.926;4.374;2023-06-26T11:12:36;6.25;;;1.02;;
19998;SDS011;10160;50.926;4.374;2023-06-26T11:15:09;3.92;;;1.17;;
19998;SDS011;10160;50.926;4.374;2023-06-26T11:17:37;4.93;;;1.20;;
19998;SDS011;10160;50.926;4.374;2023-06-26T11:20:06;5.65;;;1.30;;
19998;SDS011;10160;50.926;4.374;2023-06-26T11:22:37;5.22;;;1.08;;
19998;SDS011;10160;50.926;4.374;2023-06-26T11:25:04;2.67;;;0.88;;
19998;SDS011;10160;50.926;4.374;2023-06-26T11:30:05;5.03;;;1.25;;
19998;SDS011;10160;50.926;4.374;2023-06-26T11:32:32;6.97;;;1.20;;
19998;SDS011;10160;50.926;4.374;2023-06-26T11:34:58;4.53;;;1.00;;
19998;SDS011;10160;50.926;4.374;2023-06-26T11:37:24;7.25;;;1.30;;
19998;SDS011;10160;50.926;4.374;2023-06-26T11:39:51;4.75;;;1.50;;
19998;SDS011;10160;50.926;4.374;2023-06-26T11:42:17;3.30;;;0.98;;
19998;SDS011;10160;50.926;4.374;2023-06-26T11:44:43;4.90;;;1.00;;
19998;SDS011;10160;50.926;4.374;2023-06-26T11:47:16;4.72;;;1.10;;
19998;SDS011;10160;50.926;4.374;2023-06-26T11:49:46;7.95;;;1.30;;
19998;SDS011;10160;50.926;4.374;2023-06-26T11:52:16;7.72;;;1.60;;
19998;SDS011;10160;50.926;4.374;2023-06-26T11:54:42;7.07;;;1.40;;
19998;SDS011;10160;50.926;4.374;2023-06-26T11:57:12;6.38;;;1.83;;
19998;SDS011;10160;50.926;4.374;2023-06-26T11:59:40;5.38;;;1.77;;
19998;SDS011;10160;50.926;4.374;2023-06-26T12:02:06;8.52;;;1.40;;
19998;SDS011;10160;50.926;4.374;2023-06-26T12:04:34;7.40;;;1.65;;
19998;SDS011;10160;50.926;4.374;2023-06-26T12:07:06;5.18;;;1.70;;
19998;SDS011;10160;50.926;4.374;2023-06-26T12:09:38;5.15;;;1.40;;
19998;SDS011;10160;50.926;4.374;2023-06-26T12:12:06;6.38;;;1.35;;
19998;SDS011;10160;50.926;4.374;2023-06-26T12:14:32;9.02;;;1.70;;
19998;SDS011;10160;50.926;4.374;2023-06-26T12:17:05;5.70;;;1.60;;
19998;SDS011;10160;50.926;4.374;2023-06-26T12:19:39;8.57;;;1.48;;
19998;SDS011;10160;50.926;4.374;2023-06-26T12:22:08;5.15;;;1.40;;
19998;SDS011;10160;50.926;4.374;2023-06-26T12:24:36;7.93;;;1.42;;
19998;SDS011;10160;50.926;4.374;2023-06-26T12:27:11;8.27;;;1.88;;
19998;SDS011;10160;50.926;4.374;2023-06-26T12:29:39;10.35;;;1.33;;
19998;SDS011;10160;50.926;4.374;2023-06-26T12:32:10;6.35;;;1.55;;
19998;SDS011;10160;50.926;4.374;2023-06-26T12:34:37;6.40;;;1.35;;
19998;SDS011;10160;50.926;4.374;2023-06-26T12:37:04;4.97;;;1.50;;
19998;SDS011;10160;50.926;4.374;2023-06-26T12:39:54;8.70;;;1.73;;
19998;SDS011;10160;50.926;4.374;2023-06-26T12:42:22;4.25;;;1.27;;
19998;SDS011;10160;50.926;4.374;2023-06-26T12:44:50;8.13;;;1.58;;
19998;SDS011;10160;50.926;4.374;2023-06-26T12:47:16;8.05;;;1.40;;
19998;SDS011;10160;50.926;4.374;2023-06-26T12:49:44;11.27;;;1.58;;
19998;SDS011;10160;50.926;4.374;2023-06-26T12:52:14;6.22;;;1.45;;
19998;SDS011;10160;50.926;4.374;2023-06-26T12:54:41;14.70;;;1.85;;
19998;SDS011;10160;50.926;4.374;2023-06-26T12:57:08;7.57;;;1.48;;
19998;SDS011;10160;50.926;4.374;2023-06-26T12:59:38;6.82;;;1.55;;
19998;SDS011;10160;50.926;4.374;2023-06-26T13:02:04;6.22;;;1.67;;
19998;SDS011;10160;50.926;4.374;2023-06-26T13:04:30;4.93;;;1.23;;
19998;SDS011;10160;50.926;4.374;2023-06-26T13:06:56;9.23;;;1.88;;
19998;SDS011;10160;50.926;4.374;2023-06-26T13:09:22;8.30;;;1.60;;
19998;SDS011;10160;50.926;4.374;2023-06-26T13:11:50;7.82;;;2.15;;
19998;SDS011;10160;50.926;4.374;2023-06-26T13:14:22;7.13;;;1.52;;
19998;SDS011;10160;50.926;4.374;2023-06-26T13:16:47;5.50;;;1.30;;
19998;SDS011;10160;50.926;4.374;2023-06-26T13:19:13;9.02;;;1.70;;
19998;SDS011;10160;50.926;4.374;2023-06-26T13:21:39;6.25;;;1.58;;
19998;SDS011;10160;50.926;4.374;2023-06-26T13:24:04;5.35;;;1.42;;
19998;SDS011;10160;50.926;4.374;2023-06-26T13:26:30;11.98;;;1.90;;
19998;SDS011;10160;50.926;4.374;2023-06-26T13:28:57;7.45;;;1.65;;
19998;SDS011;10160;50.926;4.374;2023-06-26T13:31:23;8.85;;;1.92;;
19998;SDS011;10160;50.926;4.374;2023-06-26T13:33:49;6.35;;;1.50;;
19998;SDS011;10160;50.926;4.374;2023-06-26T13:36:17;6.18;;;1.48;;
19998;SDS011;10160;50.926;4.374;2023-06-26T13:38:43;7.88;;;1.40;;
19998;SDS011;10160;50.926;4.374;2023-06-26T13:41:09;5.63;;;1.48;;
19998;SDS011;10160;50.926;4.374;2023-06-26T13:43:35;5.60;;;1.17;;
19998;SDS011;10160;50.926;4.374;2023-06-26T13:46:01;4.32;;;1.25;;
19998;SDS011;10160;50.926;4.374;2023-06-26T13:48:27;6.72;;;1.20;;
19998;SDS011;10160;50.926;4.374;2023-06-26T13:50:53;7.22;;;1.70;;
19998;SDS011;10160;50.926;4.374;2023-06-26T13:53:22;5.88;;;1.60;;
19998;SDS011;10160;50.926;4.374;2023-06-26T13:55:47;5.85;;;1.30;;
19998;SDS011;10160;50.926;4.374;2023-06-26T13:58:13;6.22;;;1.38;;
19998;SDS011;10160;50.926;4.374;2023-06-26T14:00:39;8.85;;;1.42;;
19998;SDS011;10160;50.926;4.374;2023-06-26T14:03:06;8.32;;;1.80;;
19998;SDS011;10160;50.926;4.374;2023-06-26T14:05:35;9.35;;;1.55;;
19998;SDS011;10160;50.926;4.374;2023-06-26T14:08:05;6.80;;;1.38;;
19998;SDS011;10160;50.926;4.374;2023-06-26T14:10:32;3.88;;;1.10;;
19998;SDS011;10160;50.926;4.374;2023-06-26T14:12:58;4.82;;;1.20;;
19998;SDS011;10160;50.926;4.374;2023-06-26T14:15:25;7.32;;;1.50;;
19998;SDS011;10160;50.926;4.374;2023-06-26T14:17:50;6.00;;;1.50;;
19998;SDS011;10160;50.926;4.374;2023-06-26T14:20:17;6.70;;;1.20;;
19998;SDS011;10160;50.926;4.374;2023-06-26T14:22:44;6.20;;;1.67;;
19998;SDS011;10160;50.926;4.374;2023-06-26T14:25:10;6.60;;;1.42;;
19998;SDS011;10160;50.926;4.374;2023-06-26T14:27:40;7.05;;;1.40;;
19998;SDS011;10160;50.926;4.374;2023-06-26T14:30:06;5.68;;;1.40;;
19998;SDS011;10160;50.926;4.374;2023-06-26T14:32:33;6.97;;;1.52;;
19998;SDS011;10160;50.926;4.374;2023-06-26T14:34:59;9.05;;;1.50;;
19998;SDS011;10160;50.926;4.374;2023-06-26T14:37:25;7.68;;;1.58;;
19998;SDS011;10160;50.926;4.374;2023-06-26T14:39:51;4.38;;;1.00;;
19998;SDS011;10160;50.926;4.374;2023-06-26T14:42:16;8.23;;;1.50;;
19998;SDS011;10160;50.926;4.374;2023-06-26T14:44:42;5.85;;;1.42;;
19998;SDS011;10160;50.926;4.374;2023-06-26T14:47:11;6.13;;;1.33;;
19998;SDS011;10160;50.926;4.374;2023-06-26T14:49:38;7.80;;;1.80;;
19998;SDS011;10160;50.926;4.374;2023-06-26T14:52:03;5.97;;;1.30;;